sensor_id;sensor_type;location;lat;lon;timestamp;P1;durP1;ratioP1;P2;durP2;ratioP2
35380;SDS011;21486;51.916;8.378;2022-12-18T01:33:03;39.08;;;18.38;;
35380;SDS011;21486;51.916;8.378;2022-12-18T01:35:29;39.85;;;20.48;;
35380;SDS011;21486;51.916;8.378;2022-12-18T01:37:55;34.45;;;17.73;;
35380;SDS011;21486;51.916;8.378;2022-12-18T01:40:21;33.45;;;16.38;;
35380;SDS011;21486;51.916;8.378;2022-12-18T01:42:53;33.80;;;18.05;;
35380;SDS011;21486;51.916;8.378;2022-12-18T01:47:52;28.58;;;16.60;;
35380;SDS011;21486;51.916;8.378;2022-12-18T01:53:06;32.78;;;16.40;;
35380;SDS011;21486;51.916;8.378;2022-12-18T01:55:32;29.45;;;16.52;;
35380;SDS011;21486;51.916;8.378;2022-12-18T01:58:04;32.50;;;16.20;;
35380;SDS011;21486;51.916;8.378;2022-12-18T02:00:30;28.95;;;15.88;;
35380;SDS011;21486;51.916;8.378;2022-12-18T02:02:55;26.93;;;15.17;;
35380;SDS011;21486;51.916;8.378;2022-12-18T02:05:31;31.50;;;16.00;;
35380;SDS011;21486;51.916;8.378;2022-12-18T02:08:10;31.85;;;15.75;;
35380;SDS011;21486;51.916;8.378;2022-12-18T02:11:05;30.77;;;15.52;;
35380;SDS011;21486;51.916;8.378;2022-12-18T02:14:04;29.85;;;15.98;;
35380;SDS011;21486;51.916;8.378;2022-12-18T02:16:51;29.02;;;15.05;;
35380;SDS011;21486;51.916;8.378;2022-12-18T02:25:28;26.08;;;14.55;;
35380;SDS011;21486;51.916;8.378;2022-12-18T02:28:16;28.23;;;14.93;;
35380;SDS011;21486;51.916;8.378;2022-12-18T02:30:46;28.30;;;13.73;;
35380;SDS011;21486;51.916;8.378;2022-12-18T02:33:15;30.42;;;13.48;;
35380;SDS011;21486;51.916;8.378;2022-12-18T02:35:42;23.88;;;13.50;;
35380;SDS011;21486;51.916;8.378;2022-12-18T02:38:10;29.00;;;14.52;;
35380;SDS011;21486;51.916;8.378;2022-12-18T02:40:37;25.73;;;13.90;;
35380;SDS011;21486;51.916;8.378;2022-12-18T02:43:12;24.48;;;13.73;;
35380;SDS011;21486;51.916;8.378;2022-12-18T02:45:56;25.40;;;13.38;;
35380;SDS011;21486;51.916;8.378;2022-12-18T02:48:24;24.53;;;13.47;;
35380;SDS011;21486;51.916;8.378;2022-12-18T02:51:03;25.13;;;13.40;;
35380;SDS011;21486;51.916;8.378;2022-12-18T02:53:43;26.40;;;14.43;;
35380;SDS011;21486;51.916;8.378;2022-12-18T02:56:18;25.27;;;13.88;;
35380;SDS011;21486;51.916;8.378;2022-12-18T03:01:26;23.58;;;13.18;;
35380;SDS011;21486;51.916;8.378;2022-12-18T03:04:00;26.60;;;13.40;;
35380;SDS011;21486;51.916;8.378;2022-12-18T03:09:00;24.42;;;12.93;;
35380;SDS011;21486;51.916;8.378;2022-12-18T03:11:32;26.17;;;13.27;;
35380;SDS011;21486;51.916;8.378;2022-12-18T03:14:20;22.10;;;12.15;;
35380;SDS011;21486;51.916;8.378;2022-12-18T03:16:48;25.40;;;12.95;;
35380;SDS011;21486;51.916;8.378;2022-12-18T03:19:18;25.35;;;12.85;;
35380;SDS011;21486;51.916;8.378;2022-12-18T03:21:47;24.27;;;12.95;;
35380;SDS011;21486;51.916;8.378;2022-12-18T03:24:18;20.10;;;12.25;;
35380;SDS011;21486;51.916;8.378;2022-12-18T03:26:46;25.37;;;12.57;;
35380;SDS011;21486;51.916;8.378;2022-12-18T03:29:18;23.83;;;12.17;;
35380;SDS011;21486;51.916;8.378;2022-12-18T03:31:55;24.48;;;12.35;;
35380;SDS011;21486;51.916;8.378;2022-12-18T03:34:28;25.50;;;12.97;;
35380;SDS011;21486;51.916;8.378;2022-12-18T03:36:57;23.17;;;13.23;;
35380;SDS011;21486;51.916;8.378;2022-12-18T03:39:23;28.67;;;12.75;;
35380;SDS011;21486;51.916;8.378;2022-12-18T03:41:55;23.00;;;13.20;;
35380;SDS011;21486;51.916;8.378;2022-12-18T03:44:54;26.27;;;13.30;;
35380;SDS011;21486;51.916;8.378;2022-12-18T03:47:41;26.27;;;13.27;;
35380;SDS011;21486;51.916;8.378;2022-12-18T03:53:00;25.38;;;13.07;;
35380;SDS011;21486;51.916;8.378;2022-12-18T03:55:36;24.17;;;12.35;;
35380;SDS011;21486;51.916;8.378;2022-12-18T03:58:03;22.90;;;12.30;;
35380;SDS011;21486;51.916;8.378;2022-12-18T04:00:30;22.05;;;12.25;;
35380;SDS011;21486;51.916;8.378;2022-12-18T04:02:57;26.03;;;13.73;;
35380;SDS011;21486;51.916;8.378;2022-12-18T04:05:25;22.05;;;12.55;;
35380;SDS011;21486;51.916;8.378;2022-12-18T04:07:53;22.03;;;12.13;;
35380;SDS011;21486;51.916;8.378;2022-12-18T04:10:20;21.88;;;12.43;;
35380;SDS011;21486;51.916;8.378;2022-12-18T04:12:45;21.40;;;12.32;;
35380;SDS011;21486;51.916;8.378;2022-12-18T04:15:11;22.20;;;11.70;;
35380;SDS011;21486;51.916;8.378;2022-12-18T04:17:37;19.48;;;11.40;;
35380;SDS011;21486;51.916;8.378;2022-12-18T04:20:04;20.00;;;11.25;;
35380;SDS011;21486;51.916;8.378;2022-12-18T04:22:30;20.33;;;11.90;;
35380;SDS011;21486;51.916;8.378;2022-12-18T04:24:55;23.20;;;11.67;;
35380;SDS011;21486;51.916;8.378;2022-12-18T04:27:21;20.37;;;10.63;;
35380;SDS011;21486;51.916;8.378;2022-12-18T04:29:47;21.90;;;11.60;;
35380;SDS011;21486;51.916;8.378;2022-12-18T04:32:12;23.80;;;11.27;;
35380;SDS011;21486;51.916;8.378;2022-12-18T04:34:38;20.23;;;10.33;;
35380;SDS011;21486;51.916;8.378;2022-12-18T04:37:03;19.05;;;10.93;;
35380;SDS011;21486;51.916;8.378;2022-12-18T04:39:29;23.80;;;9.68;;
35380;SDS011;21486;51.916;8.378;2022-12-18T04:41:55;20.50;;;10.18;;
35380;SDS011;21486;51.916;8.378;2022-12-18T04:44:20;25.27;;;10.03;;
35380;SDS011;21486;51.916;8.378;2022-12-18T04:46:46;21.47;;;10.10;;
35380;SDS011;21486;51.916;8.378;2022-12-18T04:49:11;19.00;;;10.23;;
35380;SDS011;21486;51.916;8.378;2022-12-18T04:51:37;21.65;;;10.65;;
35380;SDS011;21486;51.916;8.378;2022-12-18T04:54:03;20.85;;;10.23;;
35380;SDS011;21486;51.916;8.378;2022-12-18T04:56:30;23.20;;;9.50;;
35380;SDS011;21486;51.916;8.378;2022-12-18T04:58:56;20.15;;;9.30;;
35380;SDS011;21486;51.916;8.378;2022-12-18T05:01:22;20.27;;;9.98;;
35380;SDS011;21486;51.916;8.378;2022-12-18T05:03:47;18.77;;;9.68;;
35380;SDS011;21486;51.916;8.378;2022-12-18T05:06:13;18.65;;;9.85;;
35380;SDS011;21486;51.916;8.378;2022-12-18T05:08:39;17.53;;;9.60;;
35380;SDS011;21486;51.916;8.378;2022-12-18T05:11:06;20.38;;;10.18;;
35380;SDS011;21486;51.916;8.378;2022-12-18T05:13:36;17.60;;;9.48;;
35380;SDS011;21486;51.916;8.378;2022-12-18T05:16:03;20.47;;;10.13;;
35380;SDS011;21486;51.916;8.378;2022-12-18T05:18:29;18.30;;;9.15;;
35380;SDS011;21486;51.916;8.378;2022-12-18T05:20:55;19.50;;;10.50;;
35380;SDS011;21486;51.916;8.378;2022-12-18T05:23:22;22.67;;;10.00;;
35380;SDS011;21486;51.916;8.378;2022-12-18T05:25:58;19.63;;;10.23;;
35380;SDS011;21486;51.916;8.378;2022-12-18T05:28:29;19.40;;;10.40;;
35380;SDS011;21486;51.916;8.378;2022-12-18T05:30:57;18.83;;;10.02;;
35380;SDS011;21486;51.916;8.378;2022-12-18T05:33:25;17.67;;;9.50;;
35380;SDS011;21486;51.916;8.378;2022-12-18T05:35:56;18.65;;;10.10;;
35380;SDS011;21486;51.916;8.378;2022-12-18T05:38:24;18.25;;;9.55;;
35380;SDS011;21486;51.916;8.378;2022-12-18T05:40:50;19.73;;;10.45;;
35380;SDS011;21486;51.916;8.378;2022-12-18T05:43:16;18.80;;;9.68;;
35380;SDS011;21486;51.916;8.378;2022-12-18T05:45:43;19.10;;;10.63;;
35380;SDS011;21486;51.916;8.378;2022-12-18T05:48:09;20.42;;;10.30;;
35380;SDS011;21486;51.916;8.378;2022-12-18T05:50:41;18.52;;;9.60;;
35380;SDS011;21486;51.916;8.378;2022-12-18T05:53:08;20.30;;;10.18;;
35380;SDS011;21486;51.916;8.378;2022-12-18T05:55:36;22.60;;;11.13;;
35380;SDS011;21486;51.916;8.378;2022-12-18T05:58:03;17.92;;;10.45;;
35380;SDS011;21486;51.916;8.378;2022-12-18T06:00:30;22.02;;;11.27;;
35380;SDS011;21486;51.916;8.378;2022-12-18T06:02:57;19.85;;;10.70;;
35380;SDS011;21486;51.916;8.378;2022-12-18T06:05:23;21.10;;;11.10;;
35380;SDS011;21486;51.916;8.378;2022-12-18T06:07:48;23.25;;;11.90;;
35380;SDS011;21486;51.916;8.378;2022-12-18T06:10:14;22.60;;;11.30;;
35380;SDS011;21486;51.916;8.378;2022-12-18T06:12:39;25.30;;;11.83;;
35380;SDS011;21486;51.916;8.378;2022-12-18T06:15:05;23.63;;;12.47;;
35380;SDS011;21486;51.916;8.378;2022-12-18T06:17:31;23.25;;;11.63;;
35380;SDS011;21486;51.916;8.378;2022-12-18T06:19:58;22.03;;;12.43;;
35380;SDS011;21486;51.916;8.378;2022-12-18T06:22:24;25.27;;;12.15;;
35380;SDS011;21486;51.916;8.378;2022-12-18T06:24:50;24.10;;;12.00;;
35380;SDS011;21486;51.916;8.378;2022-12-18T06:27:15;24.17;;;12.07;;
35380;SDS011;21486;51.916;8.378;2022-12-18T06:29:41;25.17;;;12.20;;
35380;SDS011;21486;51.916;8.378;2022-12-18T06:32:07;27.23;;;11.88;;
35380;SDS011;21486;51.916;8.378;2022-12-18T06:34:32;26.58;;;12.32;;
35380;SDS011;21486;51.916;8.378;2022-12-18T06:36:58;27.25;;;12.88;;
35380;SDS011;21486;51.916;8.378;2022-12-18T06:39:24;24.15;;;13.25;;
35380;SDS011;21486;51.916;8.378;2022-12-18T06:41:52;32.58;;;13.98;;
35380;SDS011;21486;51.916;8.378;2022-12-18T06:44:18;26.60;;;12.85;;
35380;SDS011;21486;51.916;8.378;2022-12-18T06:46:43;26.33;;;12.80;;
35380;SDS011;21486;51.916;8.378;2022-12-18T06:49:09;26.30;;;12.43;;
35380;SDS011;21486;51.916;8.378;2022-12-18T06:51:35;28.27;;;11.90;;
35380;SDS011;21486;51.916;8.378;2022-12-18T06:54:00;24.03;;;12.07;;
35380;SDS011;21486;51.916;8.378;2022-12-18T06:56:26;20.38;;;11.70;;
35380;SDS011;21486;51.916;8.378;2022-12-18T06:58:52;25.13;;;11.90;;
35380;SDS011;21486;51.916;8.378;2022-12-18T07:01:18;24.15;;;12.88;;
35380;SDS011;21486;51.916;8.378;2022-12-18T07:03:44;28.90;;;13.43;;
35380;SDS011;21486;51.916;8.378;2022-12-18T07:06:13;38.55;;;18.90;;
35380;SDS011;21486;51.916;8.378;2022-12-18T07:08:40;43.80;;;20.20;;
35380;SDS011;21486;51.916;8.378;2022-12-18T07:11:05;35.85;;;18.55;;
35380;SDS011;21486;51.916;8.378;2022-12-18T07:13:31;32.37;;;15.80;;
35380;SDS011;21486;51.916;8.378;2022-12-18T07:16:03;33.13;;;14.40;;
35380;SDS011;21486;51.916;8.378;2022-12-18T07:18:46;23.75;;;13.25;;
35380;SDS011;21486;51.916;8.378;2022-12-18T07:21:16;29.63;;;14.10;;
35380;SDS011;21486;51.916;8.378;2022-12-18T07:23:43;28.83;;;12.95;;
35380;SDS011;21486;51.916;8.378;2022-12-18T07:26:11;23.88;;;13.23;;
35380;SDS011;21486;51.916;8.378;2022-12-18T07:28:38;26.90;;;13.25;;
35380;SDS011;21486;51.916;8.378;2022-12-18T07:31:09;25.42;;;12.50;;
35380;SDS011;21486;51.916;8.378;2022-12-18T07:33:37;26.25;;;12.63;;
35380;SDS011;21486;51.916;8.378;2022-12-18T07:36:03;21.42;;;11.45;;
35380;SDS011;21486;51.916;8.378;2022-12-18T07:38:31;19.60;;;11.18;;
35380;SDS011;21486;51.916;8.378;2022-12-18T07:41:00;19.42;;;10.77;;
35380;SDS011;21486;51.916;8.378;2022-12-18T07:43:31;19.47;;;10.40;;
35380;SDS011;21486;51.916;8.378;2022-12-18T07:45:56;25.38;;;11.23;;
35380;SDS011;21486;51.916;8.378;2022-12-18T07:48:22;27.38;;;11.63;;
35380;SDS011;21486;51.916;8.378;2022-12-18T07:50:48;22.67;;;11.38;;
35380;SDS011;21486;51.916;8.378;2022-12-18T07:53:13;26.87;;;12.20;;
35380;SDS011;21486;51.916;8.378;2022-12-18T07:55:39;21.97;;;11.80;;
35380;SDS011;21486;51.916;8.378;2022-12-18T07:58:06;26.10;;;12.20;;
35380;SDS011;21486;51.916;8.378;2022-12-18T08:00:32;21.55;;;11.60;;
35380;SDS011;21486;51.916;8.378;2022-12-18T08:02:58;22.08;;;11.88;;
35380;SDS011;21486;51.916;8.378;2022-12-18T08:05:24;22.20;;;11.35;;
35380;SDS011;21486;51.916;8.378;2022-12-18T08:07:50;23.50;;;12.30;;
35380;SDS011;21486;51.916;8.378;2022-12-18T08:10:16;22.53;;;11.63;;
35380;SDS011;21486;51.916;8.378;2022-12-18T08:12:41;19.98;;;11.30;;
35380;SDS011;21486;51.916;8.378;2022-12-18T08:15:07;21.10;;;11.25;;
35380;SDS011;21486;51.916;8.378;2022-12-18T08:17:33;21.02;;;11.55;;
35380;SDS011;21486;51.916;8.378;2022-12-18T08:19:58;21.33;;;11.87;;
35380;SDS011;21486;51.916;8.378;2022-12-18T08:22:24;23.23;;;11.70;;
35380;SDS011;21486;51.916;8.378;2022-12-18T08:24:50;17.50;;;10.67;;
35380;SDS011;21486;51.916;8.378;2022-12-18T08:27:15;20.17;;;10.40;;
35380;SDS011;21486;51.916;8.378;2022-12-18T08:29:41;17.83;;;10.77;;
35380;SDS011;21486;51.916;8.378;2022-12-18T08:32:06;23.20;;;11.48;;
35380;SDS011;21486;51.916;8.378;2022-12-18T08:34:32;22.98;;;10.55;;
35380;SDS011;21486;51.916;8.378;2022-12-18T08:36:57;22.97;;;11.27;;
35380;SDS011;21486;51.916;8.378;2022-12-18T08:39:23;23.90;;;11.67;;
35380;SDS011;21486;51.916;8.378;2022-12-18T08:41:49;21.93;;;10.17;;
35380;SDS011;21486;51.916;8.378;2022-12-18T08:44:33;24.92;;;10.98;;
35380;SDS011;21486;51.916;8.378;2022-12-18T08:47:05;17.90;;;9.93;;
35380;SDS011;21486;51.916;8.378;2022-12-18T08:49:32;19.83;;;11.40;;
35380;SDS011;21486;51.916;8.378;2022-12-18T08:51:58;19.45;;;10.50;;
35380;SDS011;21486;51.916;8.378;2022-12-18T08:54:24;19.97;;;11.00;;
35380;SDS011;21486;51.916;8.378;2022-12-18T08:56:50;22.25;;;11.18;;
35380;SDS011;21486;51.916;8.378;2022-12-18T08:59:16;19.20;;;10.90;;
35380;SDS011;21486;51.916;8.378;2022-12-18T09:01:42;18.63;;;10.38;;
35380;SDS011;21486;51.916;8.378;2022-12-18T09:04:09;19.67;;;10.52;;
35380;SDS011;21486;51.916;8.378;2022-12-18T09:06:35;23.37;;;10.67;;
35380;SDS011;21486;51.916;8.378;2022-12-18T09:09:00;21.38;;;11.20;;
35380;SDS011;21486;51.916;8.378;2022-12-18T09:11:27;18.00;;;10.00;;
35380;SDS011;21486;51.916;8.378;2022-12-18T09:13:54;18.50;;;9.82;;
35380;SDS011;21486;51.916;8.378;2022-12-18T09:16:21;16.20;;;8.25;;
35380;SDS011;21486;51.916;8.378;2022-12-18T09:18:47;17.92;;;8.07;;
35380;SDS011;21486;51.916;8.378;2022-12-18T09:21:14;18.17;;;8.20;;
35380;SDS011;21486;51.916;8.378;2022-12-18T09:23:42;16.25;;;7.82;;
35380;SDS011;21486;51.916;8.378;2022-12-18T09:26:08;15.55;;;8.02;;
35380;SDS011;21486;51.916;8.378;2022-12-18T09:28:34;14.63;;;8.00;;
35380;SDS011;21486;51.916;8.378;2022-12-18T09:31:03;16.20;;;7.72;;
35380;SDS011;21486;51.916;8.378;2022-12-18T09:33:30;18.67;;;7.88;;
35380;SDS011;21486;51.916;8.378;2022-12-18T09:35:56;20.85;;;8.57;;
35380;SDS011;21486;51.916;8.378;2022-12-18T09:38:22;23.00;;;9.35;;
35380;SDS011;21486;51.916;8.378;2022-12-18T09:40:49;16.83;;;7.18;;
35380;SDS011;21486;51.916;8.378;2022-12-18T09:43:18;19.05;;;7.78;;
35380;SDS011;21486;51.916;8.378;2022-12-18T09:45:53;21.83;;;7.45;;
35380;SDS011;21486;51.916;8.378;2022-12-18T09:48:27;16.58;;;8.68;;
35380;SDS011;21486;51.916;8.378;2022-12-18T09:50:57;16.88;;;8.00;;
